Wind Gültig von: 29-01-2020 09:00 bis: 18:00 Warnung für: Wind Gefahrenstufe: Gelb info button
Schnee/Eis Gültig von: 29-01-2020 20:00 bis: 30-01-2020 10:00 Warnung für: Schnee/Eis Gefahrenstufe: Gelb info button

Besuchen Sie unsere anderen Wetter Stationen:

Template documentation
and downloads

And another site



METAR-Meldungen aus der Umgebung

   
EHVK - Volkel Rnlafb, Netherlands
Entfernung von der Station bis: SW 18 km
Aktualisierung: 29-01-2020 16:25
Stark bewölkt  
Stark bewölkt  
   Wind: Westen 20.4 km/h
Wind: Westen 20.4 km/h
Temperatur: 7°C
Gefühlt: 3°C
Taupunkt: 1°C
Luftfeuchte: 66%
Luftdruck: 1009 hPa
Bewölkt: Stark bewölkt
Sichtbarkeit: More than 10 km
Bewölkung: leicht bewölkt 823 m,
Teilweise bewölkt 1371.6 m,
Stark bewölkt 1554.5 m
EHVK 291525Z AUTO 27011KT 240V310 9999 FEW027 SCT045 BKN051 07/01 Q1009 BLU 26014KT 9999 BKN025
EDLV - Niederrhein, Germany
Entfernung von der Station bis: SO 25 km
Aktualisierung: 29-01-2020 16:20
leicht bewölkt  
leicht bewölkt  
   Wind: Westen 22.2 km/h
Wind: Westen 22.2 km/h
Temperatur: 7°C
Gefühlt: 3°C
Taupunkt: 2°C
Luftfeuchte: 71%
Luftdruck: 1009 hPa
Bewölkt: leicht bewölkt
Sichtbarkeit: More than 10 km
Bewölkung: leicht bewölkt 1036.3 m
EDLV 291520Z 27012KT 9999 FEW034 07/02 Q1009
EHDL - Deelen Rnlafb, Netherlands
Entfernung von der Station bis: N 35 km
Aktualisierung: 29-01-2020 16:25
Bewölkt  
Bewölkt  
   Wind: WSW 13 km/h
Wind: WSW 13 km/h
Temperatur: 6°C
Gefühlt: 3°C
Taupunkt: 2°C
Luftfeuchte: 76%
Luftdruck: 1008 hPa
Bewölkt: Bewölkt
Sichtbarkeit: More than 10 km
Bewölkung: Teilweise bewölkt 762 m,
Stark bewölkt 1005.8 m,
Bewölkt 1432.6 m
EHDL 291525Z AUTO 25007KT 210V290 9999 SCT025 BKN033 OVC047 06/02 Q1008 BLU
EHEH - Eindhoven Rnlafb, Netherlands
Entfernung von der Station bis: SW 48 km
Aktualisierung: 29-01-2020 16:25
Stark bewölkt  
Stark bewölkt  
   Wind: Westen 27.8 km/h<br />Gust to 27.8 km/h
Wind: Westen 27.8 km/h
Gust to 27.8 km/h
Temperatur: 7°C
Gefühlt: 3°C
Taupunkt: 2°C
Luftfeuchte: 71%
Luftdruck: 1010 hPa
Bewölkt: Stark bewölkt
Sichtbarkeit: More than 10 km
Bewölkung: Teilweise bewölkt 823 m,
Stark bewölkt 944.9 m,
Stark bewölkt 1127.8 m
EHEH 291525Z AUTO 26015G26KT 230V300 9999 SCT027 BKN031 BKN037 07/02 Q1010 BLU 26014KT 9999 SCT025 BKN030 TEMPO 27015G25KT FEW015CB SCT020 BKN030
EHGR - Gilze-Rijen Rnla, Netherlands
Entfernung von der Station bis: WSW 70 km
Aktualisierung: 29-01-2020 16:25
Teilweise bewölkt  
Teilweise bewölkt  
   Wind: Westen 20.4 km/h
Wind: Westen 20.4 km/h
Temperatur: 7°C
Gefühlt: 3°C
Taupunkt: 2°C
Luftfeuchte: 71%
Luftdruck: 1009 hPa
Bewölkt: Teilweise bewölkt
Sichtbarkeit: More than 10 km
Bewölkung: leicht bewölkt 731.5 m,
Teilweise bewölkt 823 m
EHGR 291525Z AUTO 27011KT 230V290 9999 FEW024 SCT027 07/02 Q1009 BLU
EBBL - Kleine-Brogel(Ba, Belgium
Entfernung von der Station bis: SSW 71 km
Aktualisierung: 29-01-2020 16:25
Teilweise bewölkt  
Teilweise bewölkt  
   Wind: Westen 16.7 km/h
Wind: Westen 16.7 km/h
Temperatur: 6°C
Gefühlt: 3°C
Taupunkt: 0°C
Luftfeuchte: 66%
Luftdruck: 1010 hPa
Bewölkt: Teilweise bewölkt
Sichtbarkeit: More than 10 km
Bewölkung: leicht bewölkt 975.4 m,
Teilweise bewölkt 6705.6 m
EBBL 291525Z 26009KT 9999 FEW032 SCT220 06/00 Q1010 BLU BLU

Script entwickelt von  Saratoga-weather.org Angepasst für das Template von  Weerstation Leuven

Sie finden unser Wetter-Infos auch auf:

netzwerkwettercom

European Weather Network

WeatherCloud

Weather Underground

AWEKAS

Citizen Weather Observer Program (CWOP)

HAMweather, WeatherForYou, PWS Weather

Von uns verwendete Ausrüstung:

Wetterstation
Davis VP2

Davis VP2